Terminal Aerodrome Forecast
Issued by NWS Quad Cities IA IL

Home | Current Version | Previous Version | Text Only | Print | Product List | Glossary On
Versions: 1 2 3 4 5 6 7 8 9 10 11 12 13 14 15 16 17 18 19 20 21 22 23 24 25
000
FTUS43 KDVN 290800 CCA
TAFDBQ
TAF COR
KDBQ 290800Z 2908/3006 35009KT 5SM BR BKN025
     FM290900 34014KT 4SM BR OVC012
      TEMPO 2909/2911 OVC008
     FM291100 32015G23KT 3SM BR OVC008
     FM291500 32018G27KT 6SM BR OVC015
     FM300000 33015KT P6SM BKN030=

USA.gov is the U.S. government's official web portal to all federal, state and local government web resources and services.